PHTO/ITO METAR and TAF weather

Enter ICAO airport designator
Station Type Date Time Source
PHTO METAR 2021/07/29 02:53 UTC NOAA

PHTO 290253Z 06009KT 10SM OVC047 27/22 A3003 RMK AO2 SLP166 T02670217 55006


Station Type Date Time Source
PHTO Decoded METAR 2021/07/29 02:53 UTC NOAA

HILO INTERNATIONAL AIRPORT, HI, United States (PHTO) 19-43N 155-03W 12M
Jul 28, 2021 - 10:53 PM EDT / 2021.07.29 0253 UTC
Wind: from the ENE (060 degrees) at 10 MPH (9 KT):0
Visibility: 10 mile(s):0
Sky conditions: overcast
Temperature: 80.1 F (26.7 C)
Dew Point: 71.1 F (21.7 C)
Relative Humidity: 74%
Pressure (altimeter): 30.03 in. Hg (1016 hPa)
Pressure tendency: 0.02 inches (0.6 hPa) lower than three hours ago
ob: PHTO 290253Z 06009KT 10SM OVC047 27/22 A3003 RMK AO2 SLP166 T02670217 55006
cycle: 3

Station Type Date Time Source
PHTO TAF 2021/07/29 01:51 UTC NOAA

TAF
AMD PHTO 290047Z 2901/2924 05006KT P6SM -SHRA SCT020 OVC035
TEMPO 3001/3003 BKN015 OVC025
FM290800 24006KT 5SM -SHRA SCT012 OVC025
FM292200 05009KT P6SM VCSH SCT030 BKN045

Example: see airport list